createdAt,value
2022-09-20T00:01:11.337Z,100677.06
2022-09-20T00:06:10.003Z,100675.56
2022-09-20T00:11:23.774Z,100679.59
2022-09-20T00:16:26.577Z,100681.75
2022-09-20T00:21:25.896Z,100685.44
2022-09-20T00:26:22.747Z,100685.72
2022-09-20T00:31:19.308Z,100685.00
2022-09-20T00:36:15.987Z,100683.38
2022-09-20T00:41:12.295Z,100693.06
2022-09-20T00:46:42.250Z,100689.75
2022-09-20T00:51:41.474Z,100692.72
2022-09-20T00:56:41.476Z,100703.53
2022-09-20T01:01:37.949Z,100696.53
2022-09-20T01:06:35.293Z,100708.13
2022-09-20T01:11:31.935Z,100710.19
2022-09-20T01:16:31.142Z,100707.91
2022-09-20T01:21:29.036Z,100701.00
2022-09-20T01:26:32.417Z,100697.72
2022-09-20T01:31:34.832Z,100717.44
2022-09-20T01:36:44.864Z,100722.59
2022-09-20T01:41:51.016Z,100721.16
2022-09-20T01:46:53.086Z,100723.38
2022-09-20T01:52:00.152Z,100722.94
2022-09-20T01:57:17.595Z,100726.59
2022-09-20T02:02:41.253Z,100729.38
2022-09-20T02:07:46.606Z,100732.09
2022-09-20T02:12:54.115Z,100727.66
2022-09-20T02:18:34.701Z,100738.19
2022-09-20T02:23:39.639Z,100735.69
2022-09-20T02:28:38.692Z,100742.06
2022-09-20T02:33:50.996Z,100735.44
2022-09-20T02:39:03.923Z,100737.31
2022-09-20T02:44:26.317Z,100733.94
2022-09-20T02:49:36.224Z,100738.97
2022-09-20T02:54:56.460Z,100747.06
2022-09-20T03:00:00.495Z,100752.31
2022-09-20T03:05:18.847Z,100740.75
2022-09-20T03:10:41.152Z,100744.09
2022-09-20T03:15:55.750Z,100743.84
2022-09-20T03:21:11.141Z,100763.69
2022-09-20T03:26:28.958Z,100753.97
2022-09-20T03:32:01.095Z,100760.13
2022-09-20T03:37:19.432Z,100765.00
2022-09-20T03:42:22.895Z,100769.06
2022-09-20T03:47:50.092Z,100769.34
2022-09-20T03:53:13.701Z,100772.56
2022-09-20T03:58:44.935Z,100769.34
2022-09-20T04:03:45.977Z,100767.28
2022-09-20T04:09:08.596Z,100776.16
2022-09-20T04:14:29.938Z,100775.50
2022-09-20T04:19:34.895Z,100778.84
2022-09-20T04:25:05.103Z,100776.03
2022-09-20T04:30:06.259Z,100782.56
2022-09-20T04:35:33.209Z,100785.06
2022-09-20T04:41:16.696Z,100785.63
2022-09-20T04:46:38.271Z,100781.28
2022-09-20T04:52:14.167Z,100787.97
2022-09-20T04:57:22.411Z,100797.44
2022-09-20T05:02:54.911Z,100803.72
2022-09-20T05:08:03.260Z,100812.41
2022-09-20T05:13:34.459Z,100816.00
2022-09-20T05:19:14.244Z,100821.28
2022-09-20T05:24:38.265Z,100821.28
2022-09-20T05:29:49.610Z,100826.59
2022-09-20T05:34:58.097Z,100828.09
2022-09-20T05:39:54.395Z,100825.47
2022-09-20T05:44:56.570Z,100837.78
2022-09-20T05:50:15.122Z,100833.41
2022-09-20T05:55:36.252Z,100835.31
2022-09-20T06:00:41.700Z,100836.63
2022-09-20T06:06:15.693Z,100834.06
2022-09-20T06:11:49.369Z,100838.72
2022-09-20T06:17:24.324Z,100834.75
2022-09-20T06:22:29.258Z,100831.91
2022-09-20T06:27:46.872Z,100834.38
2022-09-20T06:32:54.507Z,100837.59
2022-09-20T06:38:17.239Z,100845.94
2022-09-20T06:43:14.455Z,100852.53
2022-09-20T06:48:13.276Z,100856.59
2022-09-20T06:53:18.579Z,100862.00
2022-09-20T06:58:15.268Z,100860.13
2022-09-20T07:03:13.022Z,100846.09
2022-09-20T07:08:09.363Z,100855.84
2022-09-20T07:13:06.123Z,100871.47
2022-09-20T07:18:02.491Z,100872.81
2022-09-20T07:22:59.309Z,100874.50
2022-09-20T07:27:55.727Z,100875.53
2022-09-20T07:32:52.535Z,100878.28
2022-09-20T07:37:48.889Z,100881.53
2022-09-20T07:42:45.995Z,100891.94
2022-09-20T07:47:44.817Z,100890.41
2022-09-20T07:52:41.327Z,100889.47
2022-09-20T07:57:38.324Z,100887.06
2022-09-20T08:02:34.817Z,100892.63
2022-09-20T08:07:31.136Z,100891.84
2022-09-20T08:17:47.430Z,100897.16
2022-09-20T08:22:47.503Z,100907.16
2022-09-20T08:27:53.534Z,100910.34
2022-09-20T08:32:50.055Z,100912.34
2022-09-20T08:37:47.493Z,100909.50
2022-09-20T08:42:44.918Z,100908.50
2022-09-20T08:47:55.244Z,100916.25
2022-09-20T08:53:00.178Z,100916.09
2022-09-20T08:57:58.112Z,100909.16
2022-09-20T09:02:57.039Z,100921.59
2022-09-20T09:07:53.466Z,100917.84
2022-09-20T09:12:51.233Z,100916.03
2022-09-20T09:17:47.627Z,100919.59
2022-09-20T09:22:45.793Z,100925.16
2022-09-20T09:28:00.875Z,100921.81
2022-09-20T09:33:28.186Z,100928.59
2022-09-20T09:38:28.111Z,100927.75
2022-09-20T09:43:33.408Z,100936.28
2022-09-20T09:48:31.199Z,100934.75
2022-09-20T09:53:27.507Z,100934.53
2022-09-20T09:59:15.180Z,100934.06
2022-09-20T10:04:28.092Z,100939.41
2022-09-20T10:09:51.927Z,100928.63
2022-09-20T10:15:03.071Z,100935.63
2022-09-20T10:20:18.089Z,100921.03
2022-09-20T10:25:43.350Z,100929.84
2022-09-20T10:31:06.027Z,100922.38
2022-09-20T10:36:15.285Z,100922.09
2022-09-20T10:42:15.782Z,100920.47
2022-09-20T10:47:20.281Z,100918.44
2022-09-20T10:52:25.646Z,100932.50
2022-09-20T10:57:46.874Z,100953.69
2022-09-20T11:02:55.455Z,100953.41
2022-09-20T11:08:03.304Z,100939.72
2022-09-20T11:13:10.319Z,100943.47
2022-09-20T11:18:07.353Z,100945.94
2022-09-20T11:23:20.968Z,100944.69
2022-09-20T11:28:38.878Z,100946.41
2022-09-20T11:33:41.545Z,100945.09
2022-09-20T11:38:52.316Z,100947.09
2022-09-20T11:43:50.599Z,100948.94
2022-09-20T11:48:55.114Z,100940.88
2022-09-20T11:54:22.871Z,100944.53
2022-09-20T11:59:29.003Z,100940.16
2022-09-20T12:04:33.281Z,100944.72
2022-09-20T12:09:34.378Z,100954.16
2022-09-20T12:14:32.378Z,100940.63
2022-09-20T12:19:32.795Z,100944.41
2022-09-20T12:24:34.589Z,100947.69
2022-09-20T12:29:34.158Z,100950.25
2022-09-20T12:34:36.337Z,100961.81
2022-09-20T12:39:38.523Z,100951.16
2022-09-20T12:44:36.677Z,100953.38
2022-09-20T12:49:55.641Z,100954.06
2022-09-20T12:54:56.326Z,100953.38
2022-09-20T13:00:01.229Z,100956.34
2022-09-20T13:04:58.125Z,100960.75
2022-09-20T13:09:55.227Z,100951.31
2022-09-20T13:14:52.569Z,100945.66
2022-09-20T13:19:50.854Z,100943.47
2022-09-20T13:24:49.905Z,100946.94
2022-09-20T13:29:46.688Z,100955.66
2022-09-20T13:34:43.574Z,100952.16
2022-09-20T13:39:41.217Z,100946.66
2022-09-20T13:44:38.642Z,100954.13
2022-09-20T13:49:35.030Z,100958.56
2022-09-20T13:54:33.333Z,100952.94
2022-09-20T13:59:35.152Z,100959.66
2022-09-20T14:04:31.791Z,100951.19
2022-09-20T14:09:36.556Z,100951.09
2022-09-20T14:14:34.849Z,100945.94
2022-09-20T14:19:37.230Z,100955.19
2022-09-20T14:24:35.776Z,100947.00
2022-09-20T14:29:41.505Z,100946.41
2022-09-20T14:34:40.217Z,100955.47
2022-09-20T14:39:47.643Z,100966.03
2022-09-20T14:44:44.059Z,100957.44
2022-09-20T14:49:43.543Z,100966.59
2022-09-20T14:54:41.244Z,100968.19
2022-09-20T14:59:42.762Z,100965.25
2022-09-20T15:04:40.889Z,100965.16
2022-09-20T15:09:37.294Z,100976.91
2022-09-20T15:14:37.451Z,100976.91
2022-09-20T15:19:34.415Z,100965.84
2022-09-20T15:24:30.801Z,100979.84
2022-09-20T15:29:27.241Z,100981.63
2022-09-20T15:34:23.572Z,100970.97
2022-09-20T15:39:22.069Z,100975.31
2022-09-20T15:44:18.746Z,100978.91
2022-09-20T15:49:15.071Z,100969.63
2022-09-20T15:54:13.556Z,100973.22
2022-09-20T15:59:11.566Z,100976.06
2022-09-20T16:04:17.214Z,100972.56
2022-09-20T16:09:13.979Z,100968.16
2022-09-20T16:14:10.341Z,100975.31
2022-09-20T16:19:22.190Z,100984.47
2022-09-20T16:24:18.695Z,100985.19
2022-09-20T16:29:16.871Z,100989.66
2022-09-20T16:34:17.718Z,100986.38
2022-09-20T16:39:15.833Z,100991.47
2022-09-20T16:44:13.080Z,100989.38
2022-09-20T16:49:10.819Z,100994.91
2022-09-20T16:54:12.147Z,101007.69
2022-09-20T16:59:09.196Z,101023.81
2022-09-20T17:04:06.651Z,101025.19
2022-09-20T17:09:04.974Z,101030.84
2022-09-20T17:14:01.547Z,101024.88
2022-09-20T17:19:00.942Z,101027.06
2022-09-20T17:23:59.535Z,101026.16
2022-09-20T17:28:56.464Z,101020.81
2022-09-20T17:33:53.072Z,101030.19
2022-09-20T17:38:53.860Z,101035.88
2022-09-20T17:43:55.654Z,101033.13
2022-09-20T17:48:55.526Z,101041.09
2022-09-20T17:53:53.029Z,101052.88
2022-09-20T17:58:49.357Z,101049.06
2022-09-20T18:03:47.847Z,101059.63
2022-09-20T18:08:57.299Z,101060.41
2022-09-20T18:13:53.682Z,101072.78
2022-09-20T18:18:50.229Z,101078.19
2022-09-20T18:23:48.098Z,101085.03
2022-09-20T18:28:48.737Z,101083.63
2022-09-20T18:33:45.283Z,101093.38
2022-09-20T18:38:45.436Z,101095.34
2022-09-20T18:43:44.506Z,101105.59
2022-09-20T18:48:40.926Z,101099.59
2022-09-20T18:53:37.768Z,101105.94
2022-09-20T18:58:35.436Z,101117.97
2022-09-20T19:04:02.185Z,101114.03
2022-09-20T19:09:08.245Z,101125.25
2022-09-20T19:14:17.574Z,101125.38
2022-09-20T19:19:33.910Z,101128.75
2022-09-20T19:25:03.910Z,101136.03
2022-09-20T19:30:00.550Z,101141.03
2022-09-20T19:35:01.511Z,101150.66
2022-09-20T19:40:08.749Z,101154.69
2022-09-20T19:45:53.253Z,101162.28
2022-09-20T19:50:52.516Z,101174.09
2022-09-20T19:55:53.731Z,101183.00
2022-09-20T20:00:50.405Z,101193.03
2022-09-20T20:06:07.063Z,101191.22
2022-09-20T20:11:20.638Z,101190.88
2022-09-20T20:16:25.993Z,101196.66
2022-09-20T20:21:54.903Z,101206.97
2022-09-20T20:26:51.565Z,101199.03
2022-09-20T20:31:48.025Z,101208.00
2022-09-20T20:36:44.347Z,101203.88
2022-09-20T20:41:41.130Z,101215.63
2022-09-20T20:46:38.062Z,101227.94
2022-09-20T20:51:34.416Z,101223.94
2022-09-20T20:56:31.515Z,101224.81
2022-09-20T21:01:32.717Z,101238.53
2022-09-20T21:06:34.629Z,101238.75
2022-09-20T21:11:33.734Z,101242.41
2022-09-20T21:16:32.243Z,101243.09
2022-09-20T21:21:30.449Z,101250.78
2022-09-20T21:26:31.848Z,101249.44
2022-09-20T21:31:31.859Z,101256.75
2022-09-20T21:36:29.717Z,101251.75
2022-09-20T21:41:29.293Z,101260.63
2022-09-20T21:46:30.877Z,101259.34
2022-09-20T21:51:30.982Z,101270.78
2022-09-20T21:56:31.132Z,101263.47
2022-09-20T22:01:28.871Z,101275.75
2022-09-20T22:06:28.739Z,101270.19
2022-09-20T22:11:27.086Z,101274.34
2022-09-20T22:16:25.136Z,101270.03
2022-09-20T22:21:24.536Z,101277.34
2022-09-20T22:26:21.879Z,101272.41
2022-09-20T22:31:24.647Z,101274.59
2022-09-20T22:36:23.985Z,101277.53
2022-09-20T22:41:21.057Z,101269.31
2022-09-20T22:46:25.751Z,101272.19
2022-09-20T22:51:24.560Z,101270.56
2022-09-20T22:56:29.316Z,101277.81
2022-09-20T23:01:28.124Z,101275.06
2022-09-20T23:06:29.732Z,101273.84
2022-09-20T23:11:26.486Z,101270.66
2022-09-20T23:16:26.691Z,101282.47
2022-09-20T23:21:24.220Z,101290.66
2022-09-20T23:26:21.469Z,101288.63
2022-09-20T23:31:18.688Z,101291.91
2022-09-20T23:36:16.358Z,101300.75
2022-09-20T23:41:15.324Z,101293.81
2022-09-20T23:46:13.911Z,101294.66
2022-09-20T23:51:11.601Z,101295.66
2022-09-20T23:56:09.134Z,101295.06
